Time;durP1;ratioP1;P1;durP2;ratioP2;P2;SDS_P1;SDS_P2;PMS_P1;PMS_P2;Temp;Humidity;BMP_temperature;BMP_pressure;BME280_temperature;BME280_humidity;BME280_pressure;Samples;Min_cycle;Max_cycle;Signal;HPM_P1;HPM_P2
2022/02/16 00:00:56;;;;;;;6.53;2.60;;;9.10;99.90;;;;;;5015818;28;20132;-59
2022/02/16 00:03:22;;;;;;;6.43;2.45;;;9.10;99.90;;;;;;5003079;28;20065;-59
2022/02/16 00:05:51;;;;;;;8.68;2.80;;;9.10;99.90;;;;;;5003700;28;20038;-58
2022/02/16 00:08:18;;;;;;;7.03;2.83;;;9.10;99.90;;;;;;5003230;28;20212;-59
2022/02/16 00:10:45;;;;;;;7.97;2.55;;;9.10;99.90;;;;;;5003105;28;20139;-59
2022/02/16 00:13:11;;;;;;;6.38;2.63;;;9.10;99.90;;;;;;5010892;28;20072;-58
2022/02/16 00:15:38;;;;;;;6.97;2.50;;;9.10;99.90;;;;;;5004009;28;20078;-58
2022/02/16 00:18:06;;;;;;;6.57;2.45;;;9.10;99.90;;;;;;5003487;28;20353;-58
2022/02/16 00:20:32;;;;;;;6.18;2.33;;;9.10;99.90;;;;;;5002457;28;20581;-59
2022/02/16 00:22:59;;;;;;;7.80;2.45;;;9.10;99.90;;;;;;4998913;28;20132;-58
2022/02/16 00:25:26;;;;;;;6.15;2.20;;;9.10;99.90;;;;;;5006197;28;20133;-58
2022/02/16 00:27:52;;;;;;;8.88;2.10;;;9.10;99.90;;;;;;5006028;28;20626;-59
2022/02/16 00:30:19;;;;;;;5.85;2.28;;;9.10;99.90;;;;;;5011805;28;20073;-59
2022/02/16 00:32:46;;;;;;;5.07;2.10;;;9.10;99.90;;;;;;5002335;28;20062;-58
2022/02/16 00:35:13;;;;;;;3.95;2.22;;;9.10;99.90;;;;;;5000980;28;20149;-58
2022/02/16 00:37:41;;;;;;;5.03;2.25;;;9.10;99.90;;;;;;4999170;28;20049;-59
2022/02/16 00:40:08;;;;;;;6.68;2.83;;;9.00;99.90;;;;;;5016605;28;20077;-59
2022/02/16 00:42:35;;;;;;;6.68;2.10;;;9.00;99.90;;;;;;5007500;28;20129;-58
2022/02/16 00:45:02;;;;;;;4.72;1.98;;;9.00;99.90;;;;;;5004105;28;20128;-59
2022/02/16 00:47:29;;;;;;;4.13;1.88;;;9.00;99.90;;;;;;5001200;28;20486;-59
2022/02/16 00:49:55;;;;;;;5.43;2.00;;;9.00;99.90;;;;;;5001181;28;20125;-59
2022/02/16 00:52:23;;;;;;;6.13;1.85;;;9.00;99.90;;;;;;5000552;28;20058;-59
2022/02/16 00:54:50;;;;;;;4.78;1.70;;;9.00;99.90;;;;;;5005250;28;20130;-59
2022/02/16 00:57:17;;;;;;;3.40;1.75;;;9.00;99.90;;;;;;5020015;28;20222;-58
2022/02/16 00:59:44;;;;;;;2.38;1.25;;;9.00;99.90;;;;;;5019410;28;20107;-59
2022/02/16 01:02:11;;;;;;;3.38;1.50;;;9.10;99.90;;;;;;5007476;28;20461;-59
2022/02/16 01:04:37;;;;;;;3.78;1.35;;;9.10;99.90;;;;;;4999756;28;20539;-59
2022/02/16 01:07:04;;;;;;;4.20;1.50;;;9.10;99.90;;;;;;5001659;28;20513;-59
2022/02/16 01:09:31;;;;;;;2.60;1.10;;;9.10;99.90;;;;;;5003061;28;20149;-58
2022/02/16 01:11:58;;;;;;;1.55;1.00;;;9.20;99.90;;;;;;5004994;28;20929;-59
2022/02/16 01:14:24;;;;;;;2.70;1.27;;;9.20;99.90;;;;;;4999565;28;20080;-59
2022/02/16 01:16:51;;;;;;;1.92;1.10;;;9.20;99.90;;;;;;5004836;28;20049;-59
2022/02/16 01:19:18;;;;;;;4.15;1.88;;;9.20;99.90;;;;;;5004542;28;20120;-59
2022/02/16 01:21:45;;;;;;;1.92;1.00;;;9.30;99.90;;;;;;5004929;28;20409;-59
2022/02/16 01:24:11;;;;;;;1.63;0.90;;;9.30;99.90;;;;;;5004099;28;20634;-59
2022/02/16 01:26:38;;;;;;;0.77;0.70;;;9.30;99.90;;;;;;5005187;28;20125;-59
2022/02/16 01:29:05;;;;;;;1.45;0.60;;;9.40;99.90;;;;;;5003237;28;20161;-59
2022/02/16 01:31:32;;;;;;;1.35;0.93;;;9.40;99.90;;;;;;5010207;28;20125;-59
2022/02/16 01:33:59;;;;;;;1.38;0.80;;;9.40;99.90;;;;;;5016703;28;20156;-59
2022/02/16 01:36:26;;;;;;;2.05;1.25;;;9.50;99.90;;;;;;5005443;28;20153;-59
2022/02/16 01:38:53;;;;;;;2.30;0.68;;;9.50;99.90;;;;;;5001725;28;20561;-59
2022/02/16 01:41:19;;;;;;;1.45;0.60;;;9.60;99.90;;;;;;5002450;28;20128;-59
2022/02/16 01:43:50;;;;;;;0.77;0.40;;;9.70;99.90;;;;;;5002367;28;20474;-59
2022/02/16 01:46:17;;;;;;;0.70;0.60;;;9.80;99.90;;;;;;4986402;28;20057;-59
2022/02/16 01:48:44;;;;;;;0.80;0.47;;;9.90;99.90;;;;;;5001546;28;20129;-59
2022/02/16 01:51:11;;;;;;;1.23;0.50;;;10.00;99.90;;;;;;4999116;28;20073;-59
2022/02/16 01:53:38;;;;;;;0.40;0.30;;;10.00;99.90;;;;;;5007831;28;20081;-59
2022/02/16 01:56:05;;;;;;;0.73;0.47;;;10.00;99.90;;;;;;5007798;28;20406;-59
2022/02/16 01:58:35;;;;;;;0.52;0.30;;;10.20;99.90;;;;;;5007612;28;20175;-58
2022/02/16 02:01:03;;;;;;;0.63;0.40;;;10.20;99.90;;;;;;5005360;28;20099;-59
2022/02/16 02:03:30;;;;;;;0.40;0.30;;;10.30;99.90;;;;;;5008674;28;20051;-58
2022/02/16 02:05:57;;;;;;;0.30;0.30;;;10.30;99.90;;;;;;5009561;28;20073;-59
2022/02/16 02:08:24;;;;;;;0.30;0.30;;;10.30;99.90;;;;;;5008425;28;20097;-58
2022/02/16 02:10:51;;;;;;;0.45;0.20;;;10.40;99.90;;;;;;5001130;28;20490;-58
2022/02/16 02:13:19;;;;;;;0.45;0.28;;;10.40;99.90;;;;;;5009014;28;20084;-58
2022/02/16 02:15:45;;;;;;;1.08;0.50;;;10.40;99.90;;;;;;5006969;28;20128;-59
2022/02/16 02:18:16;;;;;;;2.10;0.50;;;10.50;99.90;;;;;;5009248;28;20088;-59
2022/02/16 02:20:43;;;;;;;0.30;0.30;;;10.50;99.90;;;;;;5008608;28;20195;-56
2022/02/16 02:23:10;;;;;;;0.65;0.40;;;10.50;99.90;;;;;;5002504;28;20046;-59
2022/02/16 02:26:03;;;;;;;0.50;0.47;;;10.60;99.90;;;;;;5006625;28;20066;-59
2022/02/16 02:28:30;;;;;;;0.40;0.40;;;10.60;99.90;;;;;;5005293;28;20135;-58
2022/02/16 02:30:57;;;;;;;0.60;0.60;;;10.60;99.90;;;;;;5006964;28;20129;-58
2022/02/16 02:33:24;;;;;;;1.05;0.50;;;10.70;99.90;;;;;;5005214;28;20176;-58
2022/02/16 02:35:50;;;;;;;1.40;0.65;;;10.70;99.90;;;;;;5006927;28;20325;-58
2022/02/16 02:38:17;;;;;;;0.80;0.32;;;10.70;99.90;;;;;;5006069;28;20092;-59
2022/02/16 02:40:44;;;;;;;2.05;0.68;;;10.70;99.90;;;;;;5005438;28;20470;-60
2022/02/16 02:43:11;;;;;;;2.03;0.65;;;10.80;99.90;;;;;;5006103;28;20061;-59
2022/02/16 02:45:37;;;;;;;2.10;0.60;;;10.80;99.90;;;;;;4997743;28;20124;-59
2022/02/16 02:48:04;;;;;;;1.27;0.50;;;10.80;99.90;;;;;;5002644;28;20142;-59
2022/02/16 02:50:31;;;;;;;0.77;0.40;;;10.90;99.90;;;;;;4988816;28;20081;-58
2022/02/16 02:52:58;;;;;;;0.40;0.40;;;10.90;99.90;;;;;;5001812;28;20073;-59
2022/02/16 02:55:24;;;;;;;2.05;1.00;;;10.90;99.90;;;;;;5007706;28;20130;-59
2022/02/16 02:57:51;;;;;;;0.70;0.40;;;10.90;99.90;;;;;;5008139;28;20081;-58
2022/02/16 03:00:18;;;;;;;0.60;0.50;;;10.90;99.90;;;;;;5006844;28;20100;-58
2022/02/16 03:02:45;;;;;;;2.17;0.70;;;10.90;99.90;;;;;;4995108;28;20454;-58
2022/02/16 03:05:12;;;;;;;0.95;0.50;;;11.00;99.90;;;;;;5023955;28;20503;-58
2022/02/16 03:07:39;;;;;;;2.35;0.77;;;11.00;99.90;;;;;;5023700;28;20128;-59
2022/02/16 03:10:06;;;;;;;0.80;0.50;;;11.00;99.90;;;;;;5007713;28;20121;-59
2022/02/16 03:12:33;;;;;;;0.98;0.60;;;11.10;99.90;;;;;;5004134;28;20156;-59
2022/02/16 03:15:00;;;;;;;2.58;0.80;;;11.10;99.90;;;;;;5018014;28;20124;-59
2022/02/16 03:17:28;;;;;;;1.70;0.70;;;11.10;99.90;;;;;;4992611;28;20133;-59
2022/02/16 03:19:55;;;;;;;2.28;0.73;;;11.20;99.90;;;;;;4988442;28;20168;-58
2022/02/16 03:22:23;;;;;;;2.47;0.80;;;11.30;99.90;;;;;;4995106;28;20467;-59
2022/02/16 03:24:49;;;;;;;0.63;0.50;;;11.40;99.90;;;;;;5006997;28;20231;-59
2022/02/16 03:27:16;;;;;;;1.58;0.63;;;11.40;99.90;;;;;;5008171;28;20646;-59
2022/02/16 03:29:43;;;;;;;2.75;0.95;;;11.40;99.90;;;;;;4995624;28;20089;-59
2022/02/16 03:32:09;;;;;;;1.65;0.60;;;11.50;99.90;;;;;;4997536;28;20415;-58
2022/02/16 03:34:36;;;;;;;3.97;1.25;;;11.50;99.90;;;;;;5005600;28;20559;-59
2022/02/16 03:37:04;;;;;;;1.65;0.70;;;11.50;99.90;;;;;;5007211;28;20172;-59
2022/02/16 03:39:31;;;;;;;1.40;0.60;;;11.50;99.90;;;;;;5006800;28;20081;-58
2022/02/16 03:41:59;;;;;;;2.40;0.70;;;11.50;99.90;;;;;;5000396;28;20465;-59
2022/02/16 03:44:26;;;;;;;1.75;0.63;;;11.60;99.90;;;;;;4999096;28;20136;-58
2022/02/16 03:46:53;;;;;;;2.63;0.80;;;11.60;99.90;;;;;;5006372;28;20092;-58
2022/02/16 03:49:22;;;;;;;3.00;0.70;;;11.60;99.90;;;;;;5006799;28;20045;-60
2022/02/16 03:51:49;;;;;;;2.03;0.70;;;11.60;99.90;;;;;;4993631;28;20084;-59
2022/02/16 03:54:16;;;;;;;2.22;0.80;;;11.70;99.90;;;;;;4997421;28;20406;-59
2022/02/16 03:56:43;;;;;;;1.10;0.60;;;11.70;99.90;;;;;;5007105;28;20085;-59
2022/02/16 03:59:10;;;;;;;2.70;0.60;;;11.80;99.90;;;;;;4992174;28;20145;-59
2022/02/16 04:01:37;;;;;;;0.95;0.60;;;11.80;99.90;;;;;;4999207;28;20081;-57
2022/02/16 04:04:04;;;;;;;2.42;1.13;;;11.80;99.90;;;;;;5006793;28;20474;-58
2022/02/16 04:06:30;;;;;;;1.33;0.70;;;11.90;99.90;;;;;;5007482;28;20153;-59
2022/02/16 04:08:57;;;;;;;3.83;0.75;;;11.90;99.90;;;;;;5005816;28;20544;-59
2022/02/16 04:11:26;;;;;;;1.42;0.60;;;11.90;99.90;;;;;;5006781;28;20077;-59
2022/02/16 04:13:54;;;;;;;2.10;1.00;;;11.90;99.90;;;;;;5004850;28;20545;-59
2022/02/16 04:16:21;;;;;;;3.28;0.77;;;11.90;99.90;;;;;;5005907;28;20084;-59
2022/02/16 04:18:48;;;;;;;1.55;0.45;;;12.00;99.90;;;;;;5006559;28;20077;-58
2022/02/16 04:21:15;;;;;;;1.15;0.73;;;12.00;99.90;;;;;;5007361;28;20141;-59
2022/02/16 04:23:42;;;;;;;0.98;0.55;;;12.00;99.90;;;;;;5003650;28;20086;-58
2022/02/16 04:26:10;;;;;;;1.35;0.68;;;12.00;99.90;;;;;;5007235;28;20073;-59
2022/02/16 04:28:36;;;;;;;1.40;0.40;;;12.00;99.90;;;;;;5005211;28;20104;-58
2022/02/16 04:31:03;;;;;;;1.45;0.50;;;12.10;99.90;;;;;;5006352;28;20070;-58
2022/02/16 04:33:30;;;;;;;1.42;0.63;;;12.10;99.90;;;;;;5001793;28;20120;-59
2022/02/16 04:35:57;;;;;;;1.25;0.32;;;12.10;99.90;;;;;;5006854;28;21115;-57
2022/02/16 04:38:23;;;;;;;1.60;0.57;;;12.10;99.90;;;;;;5005509;28;20152;-58
2022/02/16 04:40:50;;;;;;;1.20;0.40;;;12.20;99.90;;;;;;5005626;28;20073;-59
2022/02/16 04:43:17;;;;;;;0.55;0.40;;;12.20;99.90;;;;;;5003068;28;20105;-59
2022/02/16 04:45:44;;;;;;;2.28;0.65;;;12.20;99.90;;;;;;4995741;28;20551;-58
2022/02/16 04:48:10;;;;;;;1.38;0.47;;;12.20;99.90;;;;;;4987533;28;20168;-58
2022/02/16 04:50:37;;;;;;;0.43;0.20;;;12.30;99.90;;;;;;4986273;28;20141;-58
2022/02/16 04:53:04;;;;;;;0.73;0.20;;;12.30;99.90;;;;;;4994875;28;20133;-58
2022/02/16 04:55:32;;;;;;;0.77;0.30;;;12.40;99.90;;;;;;5005608;28;20088;-59
2022/02/16 04:57:59;;;;;;;0.52;0.32;;;12.40;99.90;;;;;;5004838;28;20132;-59
2022/02/16 05:00:26;;;;;;;3.42;0.65;;;12.40;99.90;;;;;;4986312;28;20084;-58
2022/02/16 05:02:52;;;;;;;0.63;0.30;;;12.40;99.90;;;;;;5005176;28;20125;-59
2022/02/16 05:05:19;;;;;;;2.65;0.40;;;12.40;99.90;;;;;;5004449;28;20049;-59
2022/02/16 05:07:46;;;;;;;0.30;0.20;;;12.40;99.90;;;;;;5005323;28;20126;-58
2022/02/16 05:10:12;;;;;;;0.52;0.20;;;12.40;99.90;;;;;;4991862;28;20081;-58
2022/02/16 05:12:41;;;;;;;0.63;0.30;;;12.50;99.90;;;;;;4986612;28;20142;-58
2022/02/16 05:15:08;;;;;;;1.25;0.20;;;12.50;99.90;;;;;;4999845;28;20565;-59
2022/02/16 05:17:34;;;;;;;1.00;0.47;;;12.50;99.90;;;;;;5005492;28;20590;-59
2022/02/16 05:20:01;;;;;;;0.30;0.25;;;12.50;99.90;;;;;;4994265;28;20140;-58
2022/02/16 05:22:29;;;;;;;0.90;0.30;;;12.50;99.90;;;;;;4997748;28;20050;-59
2022/02/16 05:24:58;;;;;;;0.20;0.20;;;12.50;99.90;;;;;;5003633;28;20053;-59
2022/02/16 05:27:25;;;;;;;1.20;0.32;;;12.50;99.90;;;;;;4986406;28;20423;-59
2022/02/16 05:29:52;;;;;;;0.30;0.20;;;12.40;99.90;;;;;;4985014;28;20379;-58
2022/02/16 05:32:19;;;;;;;0.60;0.30;;;12.40;99.90;;;;;;4986764;28;20137;-59
2022/02/16 05:34:45;;;;;;;0.93;0.45;;;12.30;99.90;;;;;;4997163;28;20140;-58
2022/02/16 05:37:12;;;;;;;0.40;0.30;;;12.20;99.90;;;;;;4985614;28;20085;-58
2022/02/16 05:39:39;;;;;;;1.27;0.47;;;12.10;99.90;;;;;;4997416;28;20085;-59
2022/02/16 05:42:06;;;;;;;0.22;0.20;;;12.10;99.90;;;;;;5005647;28;20137;-59
2022/02/16 05:44:33;;;;;;;1.75;0.75;;;12.10;99.90;;;;;;5000523;28;20085;-58
2022/02/16 05:47:00;;;;;;;0.43;0.30;;;12.10;99.90;;;;;;5023672;28;20106;-58
2022/02/16 05:49:26;;;;;;;0.32;0.20;;;12.10;99.90;;;;;;5001059;28;20100;-58
2022/02/16 05:51:56;;;;;;;0.50;0.30;;;12.10;99.90;;;;;;4999157;28;20548;-58
2022/02/16 05:54:22;;;;;;;1.23;0.30;;;12.00;99.90;;;;;;5001434;28;20089;-58
2022/02/16 05:56:49;;;;;;;0.30;0.20;;;12.10;99.90;;;;;;5002535;28;20164;-59
2022/02/16 05:59:16;;;;;;;0.38;0.35;;;12.10;99.90;;;;;;5001483;28;20498;-59
2022/02/16 06:01:43;;;;;;;1.85;0.30;;;12.10;99.90;;;;;;5003357;28;20046;-58
2022/02/16 06:04:12;;;;;;;0.47;0.20;;;12.10;99.90;;;;;;4998054;28;20589;-58
2022/02/16 06:06:39;;;;;;;0.82;0.20;;;12.10;99.90;;;;;;4998133;28;20078;-58
2022/02/16 06:09:06;;;;;;;0.70;0.30;;;12.10;99.90;;;;;;4983296;28;20061;-59
2022/02/16 06:11:33;;;;;;;0.43;0.10;;;12.20;99.90;;;;;;4996035;28;20373;-59
2022/02/16 06:14:02;;;;;;;0.15;0.15;;;12.20;99.90;;;;;;4996685;28;20049;-59
2022/02/16 06:16:29;;;;;;;0.98;0.40;;;12.20;99.90;;;;;;5002142;28;20129;-58
2022/02/16 06:18:56;;;;;;;0.28;0.28;;;12.20;99.90;;;;;;5000912;28;20081;-57
2022/02/16 06:21:23;;;;;;;0.55;0.20;;;12.20;99.90;;;;;;5001762;28;20137;-58
2022/02/16 06:23:49;;;;;;;0.43;0.30;;;12.20;99.90;;;;;;5000839;28;20604;-58
2022/02/16 06:26:16;;;;;;;0.20;0.20;;;12.30;99.90;;;;;;5002024;28;20097;-58
2022/02/16 06:28:43;;;;;;;1.08;0.22;;;12.30;99.90;;;;;;5000291;28;20092;-59
2022/02/16 06:31:09;;;;;;;1.13;0.32;;;12.30;99.90;;;;;;4992894;28;20456;-59
2022/02/16 06:33:36;;;;;;;0.85;0.30;;;12.30;99.90;;;;;;5007158;28;20085;-57
2022/02/16 06:36:03;;;;;;;0.50;0.35;;;12.30;99.90;;;;;;5008514;28;20077;-59
2022/02/16 06:38:30;;;;;;;0.40;0.30;;;12.30;99.90;;;;;;5012899;28;20137;-58
2022/02/16 06:40:57;;;;;;;0.38;0.20;;;12.40;99.90;;;;;;5018618;28;20081;-59
2022/02/16 06:43:23;;;;;;;0.40;0.28;;;12.40;99.90;;;;;;5012803;28;20208;-58
2022/02/16 06:45:50;;;;;;;1.35;0.30;;;12.40;99.90;;;;;;5016934;28;20109;-58
2022/02/16 06:48:17;;;;;;;1.17;0.40;;;12.30;99.90;;;;;;5011504;28;20112;-59
2022/02/16 06:50:45;;;;;;;0.57;0.30;;;12.30;99.90;;;;;;5014297;28;20146;-59
2022/02/16 06:53:13;;;;;;;0.63;0.40;;;12.30;99.90;;;;;;5013733;28;20436;-58
2022/02/16 06:55:40;;;;;;;0.90;0.20;;;12.20;99.90;;;;;;4998869;28;20145;-59
2022/02/16 06:58:07;;;;;;;0.30;0.30;;;12.20;99.90;;;;;;4988995;28;20141;-59
2022/02/16 07:00:33;;;;;;;1.08;0.28;;;12.20;99.90;;;;;;4999062;28;20074;-59
2022/02/16 07:03:01;;;;;;;0.75;0.30;;;12.20;99.90;;;;;;4990562;28;20521;-59
2022/02/16 07:05:27;;;;;;;1.23;0.30;;;12.20;99.90;;;;;;5002400;28;20577;-59
2022/02/16 07:07:54;;;;;;;0.30;0.20;;;12.10;99.90;;;;;;5004842;28;20100;-59
2022/02/16 07:10:21;;;;;;;0.52;0.40;;;12.10;99.90;;;;;;4999164;28;20546;-59
2022/02/16 07:12:48;;;;;;;2.10;0.57;;;12.10;99.90;;;;;;4999871;28;20053;-59
2022/02/16 07:15:14;;;;;;;0.20;0.20;;;12.10;99.90;;;;;;4994705;28;20510;-58
2022/02/16 07:17:41;;;;;;;1.80;0.50;;;12.10;99.90;;;;;;5004704;28;20112;-58
2022/02/16 07:20:09;;;;;;;2.97;0.60;;;12.10;99.90;;;;;;5011523;28;20129;-59
2022/02/16 07:22:44;;;;;;;1.88;0.57;;;12.10;99.90;;;;;;5021755;28;20465;-59
2022/02/16 07:25:11;;;;;;;1.95;0.50;;;12.10;99.90;;;;;;5021262;28;20095;-58
2022/02/16 07:27:57;;;;;;;3.63;0.98;;;12.10;99.90;;;;;;5017867;28;20046;-59
2022/02/16 07:30:24;;;;;;;2.60;0.80;;;12.10;99.90;;;;;;4992902;28;20145;-58
2022/02/16 07:32:51;;;;;;;3.38;1.08;;;12.10;99.90;;;;;;5010875;28;20080;-58
2022/02/16 07:35:18;;;;;;;3.60;1.05;;;12.10;99.90;;;;;;5009542;28;20129;-58
2022/02/16 07:37:45;;;;;;;6.13;2.00;;;12.10;99.90;;;;;;4996431;28;20070;-58
2022/02/16 07:40:12;;;;;;;4.78;1.35;;;12.10;99.90;;;;;;4999009;28;20817;-58
2022/02/16 07:42:38;;;;;;;7.78;1.70;;;12.10;99.90;;;;;;4995132;28;20129;-58
2022/02/16 07:45:06;;;;;;;7.53;2.10;;;12.20;99.90;;;;;;4992510;28;20231;-58
2022/02/16 07:47:34;;;;;;;6.30;1.60;;;12.20;99.90;;;;;;4992872;28;20088;-58
2022/02/16 07:50:01;;;;;;;11.25;2.53;;;12.20;99.90;;;;;;4999695;28;20140;-59
2022/02/16 07:52:32;;;;;;;9.63;2.75;;;12.30;99.90;;;;;;4991561;28;20050;-59
2022/02/16 07:54:59;;;;;;;9.45;2.25;;;12.30;99.90;;;;;;4998785;28;20092;-58
2022/02/16 07:57:27;;;;;;;11.10;3.15;;;12.40;99.90;;;;;;4983624;28;20092;-58
2022/02/16 07:59:55;;;;;;;12.40;2.88;;;12.40;99.90;;;;;;4991163;28;20070;-58
2022/02/16 08:02:21;;;;;;;12.70;3.90;;;12.40;99.90;;;;;;4991439;28;20100;-58
2022/02/16 08:04:48;;;;;;;8.80;3.08;;;12.50;99.90;;;;;;4994866;28;20533;-55
2022/02/16 08:07:15;;;;;;;16.50;3.60;;;12.50;99.90;;;;;;5002471;28;20753;-58
2022/02/16 08:09:42;;;;;;;16.42;4.25;;;12.60;99.90;;;;;;5002867;28;20146;-58
2022/02/16 08:12:11;;;;;;;13.68;4.53;;;12.70;99.90;;;;;;5006809;28;20083;-58
2022/02/16 08:14:38;;;;;;;13.75;4.03;;;12.70;99.90;;;;;;4996627;28;20050;-58
2022/02/16 08:17:05;;;;;;;15.45;3.60;;;12.70;99.90;;;;;;5019726;28;20136;-57
2022/02/16 08:19:32;;;;;;;15.20;4.50;;;12.80;99.90;;;;;;5016880;28;20799;-58
2022/02/16 08:21:59;;;;;;;14.23;4.30;;;12.80;99.90;;;;;;5000150;28;20881;-57
2022/02/16 08:24:26;;;;;;;15.38;3.75;;;12.80;99.90;;;;;;4999070;28;20061;-57
2022/02/16 08:26:53;;;;;;;14.45;3.47;;;12.80;99.90;;;;;;5007371;28;20079;-60
2022/02/16 08:29:20;;;;;;;14.57;4.50;;;12.70;99.90;;;;;;5008948;28;20054;-59
2022/02/16 08:31:47;;;;;;;16.65;4.10;;;12.80;99.90;;;;;;4998226;28;20454;-58
2022/02/16 08:34:14;;;;;;;13.65;4.13;;;12.80;99.90;;;;;;4990641;28;20137;-58
2022/02/16 08:36:41;;;;;;;13.95;4.47;;;12.80;99.90;;;;;;4995354;28;20553;-55
2022/02/16 08:39:07;;;;;;;17.83;4.80;;;12.80;99.90;;;;;;4993422;28;20059;-60
2022/02/16 08:41:37;;;;;;;16.15;4.90;;;12.80;99.90;;;;;;5001075;28;20151;-58
2022/02/16 08:44:04;;;;;;;14.00;4.10;;;12.80;99.90;;;;;;4997412;28;20140;-57
2022/02/16 08:46:31;;;;;;;13.65;4.75;;;12.80;99.90;;;;;;4998422;28;20762;-58
2022/02/16 08:49:01;;;;;;;16.83;4.93;;;12.80;99.90;;;;;;5010109;28;20042;-59
2022/02/16 08:51:29;;;;;;;17.52;4.63;;;12.70;99.90;;;;;;5000388;28;20061;-58
2022/02/16 08:53:56;;;;;;;18.45;5.13;;;12.80;99.90;;;;;;4996374;28;20160;-58
2022/02/16 08:56:22;;;;;;;17.95;5.25;;;12.80;99.90;;;;;;4989503;28;20146;-59
2022/02/16 08:58:49;;;;;;;14.77;4.68;;;12.80;99.90;;;;;;4987598;28;21571;-58
2022/02/16 09:01:16;;;;;;;14.60;4.95;;;12.90;99.90;;;;;;4997292;28;20149;-58
2022/02/16 09:03:42;;;;;;;17.58;5.35;;;12.90;99.90;;;;;;4985860;28;20423;-59
2022/02/16 09:06:10;;;;;;;15.73;4.47;;;13.00;99.90;;;;;;4996576;28;20085;-59
2022/02/16 09:08:37;;;;;;;17.95;5.40;;;13.00;99.90;;;;;;4996037;28;20092;-57
2022/02/16 09:11:03;;;;;;;15.88;4.68;;;13.00;99.90;;;;;;4990982;28;20528;-59
2022/02/16 09:13:30;;;;;;;16.20;4.95;;;13.10;99.90;;;;;;4985565;28;20100;-57
2022/02/16 09:15:57;;;;;;;14.80;5.30;;;13.20;99.90;;;;;;4993734;28;20377;-59
2022/02/16 09:18:25;;;;;;;18.48;5.65;;;13.30;99.90;;;;;;4989490;28;20043;-59
2022/02/16 09:20:52;;;;;;;18.40;6.15;;;13.20;99.90;;;;;;4987571;28;20420;-59
2022/02/16 09:23:18;;;;;;;22.77;6.20;;;13.30;99.90;;;;;;4989839;28;20129;-59
2022/02/16 09:25:45;;;;;;;14.10;4.47;;;13.30;99.90;;;;;;4995878;28;20152;-59
2022/02/16 09:28:12;;;;;;;15.60;5.80;;;13.40;99.90;;;;;;4997216;28;20157;-59
2022/02/16 09:30:38;;;;;;;17.30;6.38;;;13.40;99.90;;;;;;4991745;28;20138;-59
2022/02/16 09:33:05;;;;;;;16.13;5.35;;;13.40;99.90;;;;;;4986372;28;20121;-58
2022/02/16 09:35:32;;;;;;;18.35;5.38;;;13.50;99.90;;;;;;4989851;28;20077;-59
2022/02/16 09:37:59;;;;;;;17.88;5.40;;;13.50;99.90;;;;;;4989594;28;20138;-58
2022/02/16 09:40:26;;;;;;;20.77;5.97;;;13.60;99.90;;;;;;4996589;28;20123;-59
2022/02/16 09:42:54;;;;;;;20.23;6.50;;;13.70;99.90;;;;;;4998655;28;20053;-59
2022/02/16 09:45:20;;;;;;;19.27;7.05;;;13.60;99.90;;;;;;4995226;28;20546;-59
2022/02/16 09:47:47;;;;;;;20.55;6.35;;;13.70;99.90;;;;;;4997521;28;20141;-59
2022/02/16 09:50:15;;;;;;;16.88;5.60;;;13.70;99.90;;;;;;4998670;28;20590;-59
2022/02/16 09:52:42;;;;;;;14.90;5.82;;;13.80;99.90;;;;;;4998824;28;20326;-59
2022/02/16 09:55:09;;;;;;;19.23;5.78;;;13.70;99.90;;;;;;4997574;28;20179;-59
2022/02/16 09:57:36;;;;;;;18.15;5.95;;;13.80;99.90;;;;;;4998509;28;20774;-60
2022/02/16 10:00:05;;;;;;;18.65;5.78;;;13.80;99.90;;;;;;4997038;28;20141;-59
2022/02/16 10:02:40;;;;;;;23.10;6.00;;;13.80;99.90;;;;;;4998968;28;20137;-59
2022/02/16 10:05:08;;;;;;;21.48;6.63;;;13.90;99.90;;;;;;4997967;28;20140;-59
2022/02/16 10:07:38;;;;;;;18.42;6.15;;;13.90;99.90;;;;;;4997776;28;20077;-59
2022/02/16 10:10:17;;;;;;;23.30;7.25;;;13.90;99.90;;;;;;4996471;28;20273;-59
2022/02/16 10:12:45;;;;;;;21.10;5.90;;;13.90;99.90;;;;;;4999538;28;20180;-58
2022/02/16 10:15:12;;;;;;;15.48;5.47;;;14.00;99.90;;;;;;4998503;28;20138;-59
2022/02/16 10:17:40;;;;;;;15.93;5.75;;;14.00;99.90;;;;;;5002200;28;20150;-59
2022/02/16 10:20:09;;;;;;;19.05;6.47;;;14.10;99.90;;;;;;5001239;28;20156;-59
2022/02/16 10:22:49;;;;;;;16.52;5.93;;;14.20;99.90;;;;;;5002009;28;20053;-59
2022/02/16 10:25:27;;;;;;;17.45;6.40;;;14.20;99.90;;;;;;5000926;28;20236;-58
2022/02/16 10:28:14;;;;;;;19.65;6.28;;;14.30;99.90;;;;;;5002464;28;20058;-58
2022/02/16 10:30:56;;;;;;;16.70;6.05;;;14.30;99.90;;;;;;5001325;28;20057;-59
2022/02/16 10:33:27;;;;;;;15.88;5.50;;;14.30;99.90;;;;;;5001346;28;20457;-58
2022/02/16 10:36:08;;;;;;;17.80;6.28;;;14.20;99.90;;;;;;5002414;28;20548;-58
2022/02/16 10:39:01;;;;;;;16.90;5.18;;;14.30;99.90;;;;;;5000481;28;20053;-56
2022/02/16 10:41:49;;;;;;;17.35;5.80;;;14.30;99.90;;;;;;5001920;28;20054;-58
2022/02/16 10:44:21;;;;;;;21.83;6.05;;;14.30;99.90;;;;;;4999516;28;20058;-57
2022/02/16 10:47:01;;;;;;;17.98;6.10;;;14.40;99.90;;;;;;5002018;28;20302;-58
2022/02/16 10:49:29;;;;;;;23.08;6.68;;;14.40;99.90;;;;;;5001551;28;20050;-58
2022/02/16 10:52:16;;;;;;;16.10;5.65;;;14.30;99.90;;;;;;5001755;28;20133;-58
2022/02/16 10:54:59;;;;;;;19.25;5.65;;;14.40;99.90;;;;;;5001050;28;20092;-59
2022/02/16 10:57:27;;;;;;;21.95;6.90;;;14.40;99.90;;;;;;5000514;28;20188;-58
2022/02/16 10:59:54;;;;;;;16.70;5.00;;;14.40;99.90;;;;;;5000064;28;20085;-58
2022/02/16 11:02:24;;;;;;;18.35;5.45;;;14.40;99.90;;;;;;5000447;28;20053;-58
2022/02/16 11:04:53;;;;;;;14.13;5.07;;;14.40;99.90;;;;;;5001368;28;20637;-58
2022/02/16 11:07:20;;;;;;;18.35;5.82;;;14.50;99.90;;;;;;5001218;28;20065;-58
2022/02/16 11:09:48;;;;;;;18.00;5.65;;;14.60;99.90;;;;;;4999026;28;20141;-58
2022/02/16 11:12:16;;;;;;;15.82;5.85;;;14.60;99.90;;;;;;5001583;28;20295;-56
2022/02/16 11:14:43;;;;;;;19.73;6.72;;;14.60;99.90;;;;;;4999652;28;20092;-58
2022/02/16 11:17:10;;;;;;;19.58;6.05;;;14.70;99.90;;;;;;4983292;28;20133;-58
2022/02/16 11:19:42;;;;;;;17.95;6.80;;;14.80;99.90;;;;;;4999294;28;20049;-58
2022/02/16 11:22:18;;;;;;;16.63;5.90;;;14.80;99.90;;;;;;5001367;28;20469;-59
2022/02/16 11:24:47;;;;;;;16.92;6.32;;;15.00;99.90;;;;;;5000265;28;20069;-58
2022/02/16 11:27:34;;;;;;;15.07;5.63;;;15.10;99.90;;;;;;5001627;28;20085;-58
2022/02/16 11:30:03;;;;;;;15.48;5.78;;;15.30;99.90;;;;;;4999703;28;20147;-58
2022/02/16 11:32:31;;;;;;;16.95;5.43;;;15.30;99.90;;;;;;4999217;28;20093;-58
2022/02/16 11:35:13;;;;;;;14.65;5.85;;;15.40;99.90;;;;;;5000562;28;20141;-59
2022/02/16 11:37:40;;;;;;;13.63;5.10;;;15.40;99.90;;;;;;5000898;28;20168;-58
2022/02/16 11:40:10;;;;;;;15.57;5.57;;;15.50;99.90;;;;;;5000416;28;20309;-59
2022/02/16 11:42:46;;;;;;;12.00;4.57;;;15.60;99.90;;;;;;4999417;28;20046;-59
2022/02/16 11:45:17;;;;;;;18.25;5.35;;;15.70;99.90;;;;;;4998984;28;20145;-58
2022/02/16 11:47:45;;;;;;;9.70;4.35;;;15.70;99.90;;;;;;5000682;28;20509;-59
2022/02/16 11:50:15;;;;;;;9.55;3.58;;;15.80;99.90;;;;;;5000581;28;20484;-59
2022/02/16 11:52:54;;;;;;;11.95;4.00;;;16.00;99.90;;;;;;5000401;28;20060;-58
2022/02/16 11:55:25;;;;;;;9.73;3.42;;;16.00;99.90;;;;;;4999684;28;20147;-58
2022/02/16 11:57:53;;;;;;;8.05;3.10;;;16.00;99.90;;;;;;5000700;28;20304;-58
2022/02/16 12:00:20;;;;;;;7.65;3.17;;;16.00;99.90;;;;;;4999179;28;20133;-59
2022/02/16 12:02:56;;;;;;;6.70;2.42;;;15.90;99.90;;;;;;5000224;28;20068;-58
2022/02/16 12:05:42;;;;;;;5.32;2.22;;;16.10;99.90;;;;;;5000132;28;20425;-58
2022/02/16 12:08:13;;;;;;;5.35;1.90;;;16.20;99.90;;;;;;5000236;28;20339;-58
2022/02/16 12:10:42;;;;;;;5.23;1.90;;;16.20;99.90;;;;;;4999463;28;20064;-59
2022/02/16 12:13:09;;;;;;;6.25;2.13;;;16.30;99.90;;;;;;5000215;28;20461;-59
2022/02/16 12:15:45;;;;;;;8.45;2.88;;;16.40;99.90;;;;;;4997177;28;20067;-59
2022/02/16 12:18:14;;;;;;;7.40;2.55;;;16.40;99.90;;;;;;5000101;28;20133;-59
2022/02/16 12:20:48;;;;;;;7.18;3.10;;;16.40;99.90;;;;;;4999620;28;20064;-59
2022/02/16 12:23:14;;;;;;;7.18;2.90;;;16.50;99.90;;;;;;4999759;28;20477;-59
2022/02/16 12:25:41;;;;;;;9.32;3.05;;;16.40;99.90;;;;;;4998828;28;20172;-59
2022/02/16 12:28:08;;;;;;;9.88;3.38;;;16.40;99.90;;;;;;4997117;28;21549;-58
2022/02/16 12:30:37;;;;;;;8.07;2.92;;;16.30;99.90;;;;;;4985424;28;20607;-58
2022/02/16 12:33:23;;;;;;;7.03;2.92;;;16.10;99.90;;;;;;4992976;28;20081;-59
2022/02/16 12:35:50;;;;;;;7.53;2.65;;;16.10;99.90;;;;;;4998984;28;20143;-59
2022/02/16 12:38:26;;;;;;;7.75;2.78;;;16.10;99.90;;;;;;4999428;28;20062;-58
2022/02/16 12:40:52;;;;;;;7.25;2.67;;;16.10;99.90;;;;;;5000316;28;20092;-59
2022/02/16 12:43:21;;;;;;;7.03;2.95;;;16.10;99.90;;;;;;4999262;28;20152;-57
2022/02/16 12:45:49;;;;;;;6.68;2.63;;;16.00;99.90;;;;;;4998350;28;20067;-57
2022/02/16 12:48:16;;;;;;;8.48;3.08;;;15.90;99.90;;;;;;4999555;28;20545;-59
2022/02/16 12:50:44;;;;;;;7.28;2.45;;;15.70;99.90;;;;;;4999371;28;20368;-58